createdAt,value
2019-06-01T00:00:23.409Z,1.85
2019-06-01T00:03:07.704Z,1.98
2019-06-01T00:05:50.382Z,2.77
2019-06-01T00:08:33.320Z,1.90
2019-06-01T00:11:15.981Z,2.02
2019-06-01T00:13:59.162Z,2.45
2019-06-01T00:16:42.208Z,2.10
2019-06-01T00:19:25.231Z,1.82
2019-06-01T00:22:09.375Z,1.80
2019-06-01T00:24:52.419Z,2.20
2019-06-01T00:27:34.978Z,1.80
2019-06-01T00:30:27.114Z,1.70
2019-06-01T00:33:03.366Z,2.02
2019-06-01T00:35:47.373Z,2.15
2019-06-01T00:38:31.440Z,1.82
2019-06-01T00:41:14.493Z,2.17
2019-06-01T00:43:57.079Z,2.50
2019-06-01T00:46:40.319Z,2.47
2019-06-01T00:49:23.300Z,2.90
2019-06-01T00:52:06.432Z,2.87
2019-06-01T00:54:49.509Z,2.80
2019-06-01T00:57:32.252Z,2.70
2019-06-01T01:00:15.216Z,3.07
2019-06-01T01:02:58.332Z,3.60
2019-06-01T01:05:40.983Z,3.57
2019-06-01T01:08:24.292Z,2.70
2019-06-01T01:11:07.209Z,2.90
2019-06-01T01:13:51.201Z,2.70
2019-06-01T01:16:34.239Z,3.20
2019-06-01T01:19:17.169Z,3.23
2019-06-01T01:22:00.882Z,2.50
2019-06-01T01:24:46.281Z,2.97
2019-06-01T01:27:29.184Z,3.43
2019-06-01T01:30:12.301Z,3.53
2019-06-01T01:32:55.827Z,3.67
2019-06-01T01:35:39.018Z,3.47
2019-06-01T01:38:21.496Z,2.97
2019-06-01T01:41:04.693Z,2.90
2019-06-01T01:43:48.346Z,3.30
2019-06-01T01:46:31.531Z,3.10
2019-06-01T01:49:14.115Z,2.90
2019-06-01T01:51:57.409Z,2.50
2019-06-01T01:54:40.416Z,2.90
2019-06-01T01:57:23.266Z,3.27
2019-06-01T02:00:05.943Z,3.07
2019-06-01T02:02:49.117Z,3.33
2019-06-01T02:05:31.968Z,5.13
2019-06-01T02:08:15.178Z,3.77
2019-06-01T02:10:57.890Z,5.33
2019-06-01T02:13:41.039Z,11.73
2019-06-01T02:16:23.557Z,12.07
2019-06-01T02:19:06.494Z,13.90
2019-06-01T02:21:49.105Z,6.37
2019-06-01T02:24:32.031Z,8.13
2019-06-01T02:27:14.959Z,4.77
2019-06-01T02:29:59.244Z,4.07
2019-06-01T02:32:42.218Z,5.97
2019-06-01T02:35:25.434Z,5.10
2019-06-01T02:38:08.166Z,4.13
2019-06-01T02:40:51.406Z,2.80
2019-06-01T02:43:34.277Z,2.10
2019-06-01T02:46:17.325Z,2.00
2019-06-01T02:49:01.903Z,3.07
2019-06-01T02:51:44.264Z,2.50
2019-06-01T02:54:26.906Z,3.97
2019-06-01T02:57:09.940Z,2.30
2019-06-01T02:59:53.006Z,2.60
2019-06-01T03:02:35.884Z,2.23
2019-06-01T03:05:18.668Z,1.90
2019-06-01T03:08:02.063Z,1.90
2019-06-01T03:10:45.367Z,2.37
2019-06-01T03:13:30.359Z,2.10
2019-06-01T03:16:16.173Z,2.37
2019-06-01T03:19:01.865Z,1.67
2019-06-01T03:21:46.351Z,2.07
2019-06-01T03:24:30.236Z,2.37
2019-06-01T03:27:15.311Z,2.27
2019-06-01T03:30:05.298Z,2.17
2019-06-01T03:32:46.147Z,3.33
2019-06-01T03:35:29.446Z,2.20
2019-06-01T03:38:12.125Z,2.33
2019-06-01T03:40:54.906Z,2.13
2019-06-01T03:43:38.580Z,2.47
2019-06-01T03:46:22.645Z,2.80
2019-06-01T03:49:05.752Z,3.13
2019-06-01T03:51:48.886Z,3.20
2019-06-01T03:54:31.723Z,2.50
2019-06-01T03:57:14.653Z,2.97
2019-06-01T03:59:57.180Z,2.43
2019-06-01T04:02:39.943Z,2.13
2019-06-01T04:05:22.811Z,2.17
2019-06-01T04:08:05.716Z,2.43
2019-06-01T04:10:48.339Z,2.23
2019-06-01T04:13:31.381Z,2.70
2019-06-01T04:16:14.138Z,2.60
2019-06-01T04:18:57.161Z,2.70
2019-06-01T04:21:39.855Z,2.13
2019-06-01T04:24:22.748Z,2.53
2019-06-01T04:27:06.130Z,2.43
2019-06-01T04:29:49.221Z,2.47
2019-06-01T04:32:31.863Z,2.20
2019-06-01T04:35:14.715Z,2.60
2019-06-01T04:37:57.516Z,2.10
2019-06-01T04:40:40.536Z,2.90
2019-06-01T04:43:23.146Z,2.70
2019-06-01T04:46:08.111Z,2.23
2019-06-01T04:48:50.996Z,2.27
2019-06-01T04:51:34.339Z,2.60
2019-06-01T04:54:17.039Z,2.60
2019-06-01T04:57:00.161Z,2.10
2019-06-01T04:59:42.988Z,2.10
2019-06-01T05:02:25.926Z,2.50
2019-06-01T05:05:09.363Z,2.50
2019-06-01T05:07:52.394Z,2.90
2019-06-01T05:10:35.292Z,2.83
2019-06-01T05:13:18.065Z,2.70
2019-06-01T05:16:00.821Z,2.63
2019-06-01T05:18:43.907Z,2.97
2019-06-01T05:21:26.711Z,2.77
2019-06-01T05:24:10.593Z,2.63
2019-06-01T05:26:53.321Z,3.13
2019-06-01T05:29:36.284Z,2.90
2019-06-01T05:32:19.113Z,3.00
2019-06-01T05:35:02.149Z,2.90
2019-06-01T05:37:44.827Z,2.60
2019-06-01T05:40:27.773Z,2.70
2019-06-01T05:43:14.232Z,2.87
2019-06-01T05:45:55.418Z,2.57
2019-06-01T05:48:38.253Z,2.90
2019-06-01T05:51:21.407Z,2.67
2019-06-01T05:54:04.175Z,2.97
2019-06-01T05:56:47.153Z,3.43
2019-06-01T05:59:29.731Z,3.30
2019-06-01T06:02:13.218Z,3.03
2019-06-01T06:04:55.724Z,2.87
2019-06-01T06:07:38.550Z,3.87
2019-06-01T06:10:22.114Z,3.00
2019-06-01T06:13:05.084Z,2.70
2019-06-01T06:15:48.575Z,2.70
2019-06-01T06:18:31.463Z,3.00
2019-06-01T06:21:14.242Z,2.70
2019-06-01T06:23:57.188Z,2.20
2019-06-01T06:26:39.995Z,2.13
2019-06-01T06:29:23.100Z,2.70
2019-06-01T06:32:08.686Z,2.63
2019-06-01T06:34:50.163Z,3.07
2019-06-01T06:37:32.760Z,3.00
2019-06-01T06:40:15.971Z,2.90
2019-06-01T06:42:58.765Z,2.70
2019-06-01T06:45:41.669Z,2.87
2019-06-01T06:48:25.270Z,3.27
2019-06-01T06:51:08.624Z,2.60
2019-06-01T06:53:51.723Z,3.27
2019-06-01T06:56:34.990Z,2.53
2019-06-01T06:59:18.470Z,2.80
2019-06-01T07:02:01.350Z,2.50
2019-06-01T07:04:43.864Z,2.73
2019-06-01T07:07:27.559Z,2.90
2019-06-01T07:10:10.686Z,2.77
2019-06-01T07:12:53.638Z,2.70
2019-06-01T07:15:36.358Z,2.63
2019-06-01T07:18:19.424Z,2.37
2019-06-01T07:21:02.465Z,2.33
2019-06-01T07:23:45.268Z,2.53
2019-06-01T07:26:28.163Z,2.37
2019-06-01T07:29:11.436Z,2.73
2019-06-01T07:31:53.962Z,2.50
2019-06-01T07:34:41.847Z,2.60
2019-06-01T07:37:22.504Z,2.40
2019-06-01T07:40:05.691Z,3.30
2019-06-01T07:42:48.434Z,2.33
2019-06-01T07:45:33.512Z,3.00
2019-06-01T07:48:15.527Z,2.97
2019-06-01T07:50:58.405Z,2.47
2019-06-01T07:53:42.302Z,2.70
2019-06-01T07:56:26.534Z,2.80
2019-06-01T07:59:09.577Z,2.77
2019-06-01T08:01:52.520Z,2.60
2019-06-01T08:04:51.895Z,2.70
2019-06-01T08:07:21.406Z,2.37
2019-06-01T08:10:04.029Z,2.50
2019-06-01T08:12:47.014Z,2.27
2019-06-01T08:15:29.828Z,2.30
2019-06-01T08:18:12.927Z,2.53
2019-06-01T08:20:55.662Z,2.10
2019-06-01T08:23:38.588Z,2.23
2019-06-01T08:26:22.199Z,2.10
2019-06-01T08:29:05.358Z,3.40
2019-06-01T08:31:48.081Z,2.87
2019-06-01T08:34:31.065Z,2.60
2019-06-01T08:37:13.971Z,2.30
2019-06-01T08:39:59.246Z,2.60
2019-06-01T08:42:41.598Z,2.80
